Time;durP1;ratioP1;P1;durP2;ratioP2;P2;SDS_P1;SDS_P2;PMS_P1;PMS_P2;Temp;Humidity;BMP_temperature;BMP_pressure;BME280_temperature;BME280_humidity;BME280_pressure;Samples;Min_cycle;Max_cycle;Signal;HPM_P1;HPM_P2
2021/07/08 00:01:50;;;;;;;0.30;0.20;;;;;;;;;;5012680;28;20456;-63
2021/07/08 00:04:16;;;;;;;0.30;0.20;;;;;;;;;;5011407;28;20392;-62
2021/07/08 00:06:42;;;;;;;0.30;0.20;;;;;;;;;;5011250;28;20420;-63
2021/07/08 00:09:09;;;;;;;0.30;0.30;;;;;;;;;;5012256;28;20977;-64
2021/07/08 00:11:36;;;;;;;0.30;0.20;;;;;;;;;;5012190;28;20420;-62
2021/07/08 00:14:02;;;;;;;0.30;0.30;;;;;;;;;;5010375;28;20920;-63
2021/07/08 00:16:28;;;;;;;0.30;0.20;;;;;;;;;;5012382;28;20952;-64
2021/07/08 00:18:54;;;;;;;0.30;0.20;;;;;;;;;;5011976;28;20440;-65
2021/07/08 00:21:21;;;;;;;0.30;0.20;;;;;;;;;;5011592;28;20465;-65
2021/07/08 00:23:47;;;;;;;0.30;0.20;;;;;;;;;;5011872;28;20443;-64
2021/07/08 00:26:13;;;;;;;0.30;0.20;;;;;;;;;;5011956;28;20444;-64
2021/07/08 00:28:39;;;;;;;0.30;0.20;;;;;;;;;;5011852;28;20436;-63
2021/07/08 00:31:05;;;;;;;0.30;0.20;;;;;;;;;;5011469;28;20444;-62
2021/07/08 00:33:31;;;;;;;0.30;0.20;;;;;;;;;;5011867;28;20553;-63
2021/07/08 00:35:57;;;;;;;0.30;0.20;;;;;;;;;;5011783;28;20391;-64
2021/07/08 00:38:23;;;;;;;0.30;0.20;;;;;;;;;;5011730;28;20477;-64
2021/07/08 00:40:50;;;;;;;0.30;0.20;;;;;;;;;;5011397;28;20848;-64
2021/07/08 00:43:16;;;;;;;0.30;0.20;;;;;;;;;;5010405;28;20390;-64
2021/07/08 00:45:42;;;;;;;0.30;0.20;;;;;;;;;;5012171;28;20405;-63
2021/07/08 00:48:08;;;;;;;0.30;0.20;;;;;;;;;;5012027;28;20789;-63
2021/07/08 00:50:46;;;;;;;0.30;0.20;;;;;;;;;;5011372;28;20435;-64
2021/07/08 00:53:13;;;;;;;0.30;0.20;;;;;;;;;;5011652;28;20424;-64
2021/07/08 00:55:41;;;;;;;0.30;0.20;;;;;;;;;;5011873;28;20948;-64
2021/07/08 00:58:09;;;;;;;0.30;0.20;;;;;;;;;;5011829;28;20408;-64
2021/07/08 01:00:37;;;;;;;0.30;0.20;;;;;;;;;;5011725;28;20456;-64
2021/07/08 01:03:08;;;;;;;0.30;0.20;;;;;;;;;;5011606;28;20499;-64
2021/07/08 01:05:36;;;;;;;0.30;0.20;;;;;;;;;;5011941;28;20502;-64
2021/07/08 01:08:02;;;;;;;0.30;0.20;;;;;;;;;;5011458;28;20418;-65
2021/07/08 01:10:28;;;;;;;0.30;0.20;;;;;;;;;;5010786;28;20816;-65
2021/07/08 01:12:54;;;;;;;0.30;0.20;;;;;;;;;;5011539;28;20387;-64
2021/07/08 01:15:21;;;;;;;0.30;0.20;;;;;;;;;;5011502;28;20404;-64
2021/07/08 01:17:47;;;;;;;0.30;0.20;;;;;;;;;;5011330;28;20901;-64
2021/07/08 01:20:15;;;;;;;0.30;0.20;;;;;;;;;;5011188;28;20461;-64
2021/07/08 01:22:41;;;;;;;0.30;0.20;;;;;;;;;;5011482;28;20463;-64
2021/07/08 01:25:08;;;;;;;0.30;0.20;;;;;;;;;;5013005;28;20423;-63
2021/07/08 01:27:35;;;;;;;0.30;0.20;;;;;;;;;;5015055;28;20404;-66
2021/07/08 01:30:01;;;;;;;0.30;0.30;;;;;;;;;;5014553;28;20444;-65
2021/07/08 01:32:27;;;;;;;0.30;0.20;;;;;;;;;;5014897;28;20408;-63
2021/07/08 01:34:53;;;;;;;0.30;0.20;;;;;;;;;;5014935;28;20437;-65
2021/07/08 01:37:19;;;;;;;0.30;0.20;;;;;;;;;;5014813;28;20383;-65
2021/07/08 01:39:46;;;;;;;0.30;0.20;;;;;;;;;;5014569;28;20439;-61
2021/07/08 01:42:12;;;;;;;0.30;0.20;;;;;;;;;;5014820;28;20456;-64
2021/07/08 01:44:38;;;;;;;0.30;0.20;;;;;;;;;;5015012;28;20412;-63
2021/07/08 01:47:04;;;;;;;0.30;0.20;;;;;;;;;;5014972;28;20443;-64
2021/07/08 01:49:30;;;;;;;0.30;0.20;;;;;;;;;;5014699;28;20425;-65
2021/07/08 01:51:57;;;;;;;0.30;0.20;;;;;;;;;;5014404;28;20475;-65
2021/07/08 01:54:23;;;;;;;0.30;0.20;;;;;;;;;;5014149;28;20411;-65
2021/07/08 01:56:49;;;;;;;0.30;0.20;;;;;;;;;;5014500;28;20415;-64
2021/07/08 01:59:15;;;;;;;0.30;0.20;;;;;;;;;;5014350;28;20486;-65
2021/07/08 02:01:41;;;;;;;0.30;0.20;;;;;;;;;;5014076;28;20514;-65
2021/07/08 02:04:07;;;;;;;0.20;0.20;;;;;;;;;;5014360;28;20423;-63
2021/07/08 02:06:33;;;;;;;0.20;0.20;;;;;;;;;;5014377;28;20390;-63
2021/07/08 02:08:59;;;;;;;0.20;0.20;;;;;;;;;;5014156;28;20832;-64
2021/07/08 02:11:25;;;;;;;0.20;0.20;;;;;;;;;;5014090;28;20481;-64
2021/07/08 02:13:52;;;;;;;0.20;0.20;;;;;;;;;;5014168;28;20413;-63
2021/07/08 02:16:18;;;;;;;0.20;0.20;;;;;;;;;;5014137;28;20416;-64
2021/07/08 02:18:44;;;;;;;0.20;0.20;;;;;;;;;;5014173;28;20378;-64
2021/07/08 02:21:11;;;;;;;0.20;0.20;;;;;;;;;;5013700;28;20470;-64
2021/07/08 02:23:37;;;;;;;0.30;0.20;;;;;;;;;;5014059;28;20391;-65
2021/07/08 02:26:05;;;;;;;0.20;0.20;;;;;;;;;;5013905;28;20411;-64
2021/07/08 02:28:31;;;;;;;0.30;0.20;;;;;;;;;;5013821;28;20408;-64
2021/07/08 02:30:57;;;;;;;0.30;0.20;;;;;;;;;;5013431;28;20441;-65
2021/07/08 02:33:24;;;;;;;0.30;0.20;;;;;;;;;;5013823;28;20181;-65
2021/07/08 02:35:50;;;;;;;0.30;0.20;;;;;;;;;;5013466;28;20913;-65
2021/07/08 02:38:16;;;;;;;0.30;0.20;;;;;;;;;;5013420;28;20973;-63
2021/07/08 02:40:42;;;;;;;0.30;0.20;;;;;;;;;;5013364;28;20933;-63
2021/07/08 02:43:09;;;;;;;0.30;0.20;;;;;;;;;;5013453;28;20435;-65
2021/07/08 02:45:37;;;;;;;0.30;0.20;;;;;;;;;;5013623;28;20784;-65
2021/07/08 02:48:04;;;;;;;0.30;0.20;;;;;;;;;;5013679;28;20411;-66
2021/07/08 02:50:31;;;;;;;0.30;0.20;;;;;;;;;;5013141;28;20441;-64
2021/07/08 02:52:58;;;;;;;0.30;0.20;;;;;;;;;;5013468;28;20392;-61
2021/07/08 02:55:24;;;;;;;0.30;0.20;;;;;;;;;;5013508;28;20383;-63
2021/07/08 02:57:51;;;;;;;0.30;0.20;;;;;;;;;;5013369;28;20414;-63
2021/07/08 03:00:21;;;;;;;0.30;0.20;;;;;;;;;;5013383;28;20507;-64
2021/07/08 03:02:47;;;;;;;0.30;0.20;;;;;;;;;;5013351;28;20442;-65
2021/07/08 03:05:14;;;;;;;0.20;0.20;;;;;;;;;;5013177;28;20390;-66
2021/07/08 03:07:40;;;;;;;0.20;0.20;;;;;;;;;;5013138;28;20445;-66
2021/07/08 03:10:07;;;;;;;0.20;0.20;;;;;;;;;;5012663;28;20849;-65
2021/07/08 03:12:33;;;;;;;0.20;0.20;;;;;;;;;;5013105;28;20452;-65
2021/07/08 03:14:59;;;;;;;0.20;0.20;;;;;;;;;;5013018;28;20416;-63
2021/07/08 03:17:25;;;;;;;0.20;0.20;;;;;;;;;;5013011;28;20936;-64
2021/07/08 03:19:51;;;;;;;0.20;0.20;;;;;;;;;;5012570;28;20431;-64
2021/07/08 03:22:17;;;;;;;0.20;0.20;;;;;;;;;;5012809;28;20460;-63
2021/07/08 03:24:43;;;;;;;0.30;0.20;;;;;;;;;;5012757;28;20412;-64
2021/07/08 03:27:09;;;;;;;0.30;0.20;;;;;;;;;;5012669;28;20870;-63
2021/07/08 03:29:35;;;;;;;0.30;0.20;;;;;;;;;;5012812;28;20960;-65
2021/07/08 03:32:01;;;;;;;0.30;0.20;;;;;;;;;;5012470;28;20448;-65
2021/07/08 03:34:27;;;;;;;0.30;0.20;;;;;;;;;;5012675;28;20440;-62
2021/07/08 03:36:53;;;;;;;0.30;0.20;;;;;;;;;;5012908;28;20416;-62
2021/07/08 03:39:19;;;;;;;0.30;0.20;;;;;;;;;;5012616;28;20841;-61
2021/07/08 03:41:45;;;;;;;0.30;0.20;;;;;;;;;;5012583;28;20478;-64
2021/07/08 03:44:12;;;;;;;0.30;0.20;;;;;;;;;;5012480;28;20419;-64
2021/07/08 03:46:38;;;;;;;0.30;0.20;;;;;;;;;;5012540;28;20408;-65
2021/07/08 03:49:04;;;;;;;0.30;0.20;;;;;;;;;;5011515;28;20448;-65
2021/07/08 03:51:30;;;;;;;0.30;0.20;;;;;;;;;;5012196;28;20408;-64
2021/07/08 03:53:56;;;;;;;0.30;0.20;;;;;;;;;;5012320;28;20413;-65
2021/07/08 03:56:22;;;;;;;0.30;0.20;;;;;;;;;;5012272;28;20411;-65
2021/07/08 03:58:48;;;;;;;0.30;0.20;;;;;;;;;;5012335;28;20444;-65
2021/07/08 04:01:14;;;;;;;0.30;0.20;;;;;;;;;;5011881;28;20518;-65
2021/07/08 04:03:40;;;;;;;0.30;0.20;;;;;;;;;;5012240;28;20413;-65
2021/07/08 04:06:06;;;;;;;0.30;0.20;;;;;;;;;;5012196;28;20872;-65
2021/07/08 04:08:32;;;;;;;0.30;0.20;;;;;;;;;;5012065;28;20436;-66
2021/07/08 04:10:58;;;;;;;0.30;0.30;;;;;;;;;;5011809;28;20442;-65
2021/07/08 04:13:24;;;;;;;0.30;0.20;;;;;;;;;;5012030;28;20409;-64
2021/07/08 04:15:51;;;;;;;0.30;0.20;;;;;;;;;;5012105;28;20457;-65
2021/07/08 04:18:18;;;;;;;0.30;0.20;;;;;;;;;;5011927;28;20405;-64
2021/07/08 04:20:44;;;;;;;0.30;0.20;;;;;;;;;;5011738;28;20944;-64
2021/07/08 04:23:10;;;;;;;0.30;0.20;;;;;;;;;;5011908;28;20499;-65
2021/07/08 04:25:37;;;;;;;0.30;0.20;;;;;;;;;;5012215;28;20932;-62
2021/07/08 04:28:03;;;;;;;0.30;0.20;;;;;;;;;;5012285;28;20419;-63
2021/07/08 04:30:29;;;;;;;0.30;0.20;;;;;;;;;;5045375;22;20487;-62
2021/07/08 04:32:56;;;;;;;0.30;0.20;;;;;;;;;;5031526;28;20407;-63
2021/07/08 04:35:25;;;;;;;0.30;0.20;;;;;;;;;;5031533;28;20403;-63
2021/07/08 04:37:51;;;;;;;0.30;0.20;;;;;;;;;;5031523;28;20408;-63
2021/07/08 04:40:18;;;;;;;0.30;0.20;;;;;;;;;;5029861;28;20427;-62
2021/07/08 04:42:45;;;;;;;0.30;0.20;;;;;;;;;;5031326;28;20459;-63
2021/07/08 04:45:12;;;;;;;0.30;0.20;;;;;;;;;;5031472;28;20466;-63
2021/07/08 04:47:38;;;;;;;0.30;0.20;;;;;;;;;;5031363;28;20491;-63
2021/07/08 04:50:05;;;;;;;0.30;0.20;;;;;;;;;;5031021;28;20409;-62
2021/07/08 04:52:32;;;;;;;0.30;0.20;;;;;;;;;;5031357;28;20419;-61
2021/07/08 04:54:58;;;;;;;0.30;0.20;;;;;;;;;;5031417;28;20419;-61
2021/07/08 04:57:24;;;;;;;0.30;0.20;;;;;;;;;;5031316;28;20378;-61
2021/07/08 04:59:50;;;;;;;0.30;0.30;;;;;;;;;;5032263;28;20489;-61
2021/07/08 05:02:16;;;;;;;0.30;0.20;;;;;;;;;;5033868;28;20968;-61
2021/07/08 05:04:42;;;;;;;0.30;0.30;;;;;;;;;;5035158;28;20419;-61
2021/07/08 05:07:09;;;;;;;0.30;0.20;;;;;;;;;;5035103;28;20411;-63
2021/07/08 05:09:35;;;;;;;0.30;0.20;;;;;;;;;;5035036;28;20434;-63
2021/07/08 05:12:01;;;;;;;0.30;0.20;;;;;;;;;;5034855;28;20415;-63
2021/07/08 05:14:27;;;;;;;0.30;0.20;;;;;;;;;;5035016;28;20924;-63
2021/07/08 05:16:53;;;;;;;0.30;0.20;;;;;;;;;;5034912;28;20414;-63
2021/07/08 05:19:19;;;;;;;0.30;0.30;;;;;;;;;;5034806;28;20469;-63
2021/07/08 05:21:49;;;;;;;0.30;0.20;;;;;;;;;;5034632;28;20494;-62
2021/07/08 05:24:19;;;;;;;0.30;0.20;;;;;;;;;;5035047;28;20486;-63
2021/07/08 05:26:45;;;;;;;0.30;0.20;;;;;;;;;;5034990;28;20374;-63
2021/07/08 05:29:11;;;;;;;0.30;0.20;;;;;;;;;;5034548;28;20438;-61
2021/07/08 05:31:37;;;;;;;0.30;0.30;;;;;;;;;;5034301;28;20458;-61
2021/07/08 05:34:03;;;;;;;0.30;0.20;;;;;;;;;;5034595;28;20867;-61
2021/07/08 05:36:29;;;;;;;0.30;0.20;;;;;;;;;;5034682;28;20412;-61
2021/07/08 05:38:55;;;;;;;0.30;0.20;;;;;;;;;;5034695;28;20412;-61
2021/07/08 05:41:21;;;;;;;0.30;0.20;;;;;;;;;;5034264;28;20461;-61
2021/07/08 05:43:47;;;;;;;0.30;0.20;;;;;;;;;;5034725;28;20404;-61
2021/07/08 05:46:13;;;;;;;0.30;0.20;;;;;;;;;;5034541;28;20977;-61
2021/07/08 05:48:39;;;;;;;0.30;0.20;;;;;;;;;;5034460;28;20453;-61
2021/07/08 05:51:05;;;;;;;0.30;0.20;;;;;;;;;;5034441;28;20423;-62
2021/07/08 05:53:31;;;;;;;0.30;0.20;;;;;;;;;;5036715;28;20434;-61
2021/07/08 05:55:57;;;;;;;0.30;0.20;;;;;;;;;;5038335;28;20399;-62
2021/07/08 05:58:23;;;;;;;0.30;0.20;;;;;;;;;;5039118;28;20407;-61
2021/07/08 06:00:49;;;;;;;0.30;0.20;;;;;;;;;;5035912;28;20433;-61
2021/07/08 06:03:16;;;;;;;0.30;0.20;;;;;;;;;;5034315;28;20458;-61
2021/07/08 06:05:42;;;;;;;0.30;0.20;;;;;;;;;;5034442;28;20493;-61
2021/07/08 06:08:08;;;;;;;0.30;0.30;;;;;;;;;;5034096;28;20411;-61
2021/07/08 06:10:34;;;;;;;0.30;0.20;;;;;;;;;;5033439;28;20435;-61
2021/07/08 06:13:00;;;;;;;0.30;0.20;;;;;;;;;;5033407;28;20434;-61
2021/07/08 06:15:26;;;;;;;0.30;0.20;;;;;;;;;;5033960;28;20442;-61
2021/07/08 06:17:52;;;;;;;0.30;0.20;;;;;;;;;;5033949;28;20495;-63
2021/07/08 06:20:18;;;;;;;0.30;0.30;;;;;;;;;;5033609;28;20435;-63
2021/07/08 06:22:45;;;;;;;0.30;0.20;;;;;;;;;;5033782;28;21001;-63
2021/07/08 06:25:12;;;;;;;0.30;0.20;;;;;;;;;;5033838;28;20410;-63
2021/07/08 06:27:38;;;;;;;0.30;0.20;;;;;;;;;;5033677;28;20432;-63
2021/07/08 06:30:05;;;;;;;0.30;0.20;;;;;;;;;;5033288;28;20446;-63
2021/07/08 06:32:31;;;;;;;0.30;0.20;;;;;;;;;;5033697;28;20505;-63
2021/07/08 06:34:57;;;;;;;0.30;0.30;;;;;;;;;;5032759;28;20406;-60
2021/07/08 06:37:23;;;;;;;0.30;0.20;;;;;;;;;;5032377;28;20401;-61
2021/07/08 06:39:51;;;;;;;0.30;0.20;;;;;;;;;;5032924;28;20423;-61
2021/07/08 06:42:17;;;;;;;0.30;0.20;;;;;;;;;;5032883;28;20493;-61
2021/07/08 06:44:44;;;;;;;0.30;0.30;;;;;;;;;;5032963;28;20423;-61
2021/07/08 06:47:14;;;;;;;0.30;0.20;;;;;;;;;;5032704;28;20469;-61
2021/07/08 06:49:40;;;;;;;0.30;0.20;;;;;;;;;;5032979;28;20435;-61
2021/07/08 06:52:06;;;;;;;0.30;0.20;;;;;;;;;;5032806;28;20382;-61
2021/07/08 06:54:32;;;;;;;0.30;0.30;;;;;;;;;;5032830;28;20936;-61
2021/07/08 06:56:58;;;;;;;0.30;0.20;;;;;;;;;;5032727;28;20429;-61
2021/07/08 06:59:24;;;;;;;0.30;0.20;;;;;;;;;;5032940;28;20537;-61
2021/07/08 07:01:50;;;;;;;0.30;0.20;;;;;;;;;;5032414;28;20440;-61
2021/07/08 07:04:17;;;;;;;0.30;0.20;;;;;;;;;;5032551;28;20382;-61
2021/07/08 07:06:43;;;;;;;0.30;0.20;;;;;;;;;;5032533;28;20412;-61
2021/07/08 07:09:09;;;;;;;0.30;0.20;;;;;;;;;;5032467;28;20410;-61
2021/07/08 07:11:35;;;;;;;0.30;0.20;;;;;;;;;;5032260;28;20435;-61
2021/07/08 07:14:01;;;;;;;0.30;0.20;;;;;;;;;;5032264;28;20390;-61
2021/07/08 07:16:27;;;;;;;0.30;0.30;;;;;;;;;;5032305;28;20408;-61
2021/07/08 07:18:53;;;;;;;0.30;0.20;;;;;;;;;;5030740;28;20478;-61
2021/07/08 07:21:19;;;;;;;0.30;0.20;;;;;;;;;;5031905;28;20880;-61
2021/07/08 07:23:46;;;;;;;0.30;0.20;;;;;;;;;;5032134;28;20775;-61
2021/07/08 07:26:12;;;;;;;0.30;0.20;;;;;;;;;;5032217;28;20956;-61
2021/07/08 07:28:39;;;;;;;0.30;0.20;;;;;;;;;;5032021;28;20436;-64
2021/07/08 07:31:05;;;;;;;0.30;0.20;;;;;;;;;;5031767;28;20447;-63
2021/07/08 07:33:32;;;;;;;0.30;0.20;;;;;;;;;;5032089;28;20409;-63
2021/07/08 07:35:58;;;;;;;0.30;0.20;;;;;;;;;;5032132;28;20743;-64
2021/07/08 07:38:24;;;;;;;0.30;0.30;;;;;;;;;;5031902;28;20399;-61
2021/07/08 07:40:50;;;;;;;0.30;0.20;;;;;;;;;;5031616;28;20951;-61
2021/07/08 07:43:16;;;;;;;0.30;0.20;;;;;;;;;;5031256;28;20455;-61
2021/07/08 07:45:42;;;;;;;0.30;0.20;;;;;;;;;;5031848;28;20411;-61
2021/07/08 07:48:09;;;;;;;0.30;0.20;;;;;;;;;;5031862;28;20439;-63
2021/07/08 07:50:36;;;;;;;0.30;0.20;;;;;;;;;;5031375;28;20430;-63
2021/07/08 07:53:02;;;;;;;0.30;0.20;;;;;;;;;;5032149;28;20485;-61
2021/07/08 07:55:28;;;;;;;0.30;0.20;;;;;;;;;;5031624;28;20465;-61
2021/07/08 07:57:56;;;;;;;0.30;0.20;;;;;;;;;;5031622;28;20386;-61
2021/07/08 08:00:22;;;;;;;0.30;0.20;;;;;;;;;;5031455;28;20789;-63
2021/07/08 08:02:48;;;;;;;0.30;0.30;;;;;;;;;;5031485;28;20437;-62
2021/07/08 08:10:26;;;;;;;0.30;0.20;;;;;;;;;;5031448;28;20951;-62
2021/07/08 08:12:52;;;;;;;0.30;0.20;;;;;;;;;;5030841;28;20900;-63
2021/07/08 08:15:19;;;;;;;0.30;0.20;;;;;;;;;;5030256;28;20410;-62
2021/07/08 08:17:45;;;;;;;0.30;0.20;;;;;;;;;;5031167;28;20378;-62
2021/07/08 08:20:12;;;;;;;0.30;0.30;;;;;;;;;;5030719;28;20427;-63
2021/07/08 08:22:38;;;;;;;0.30;0.20;;;;;;;;;;5030566;28;20491;-62
2021/07/08 08:25:06;;;;;;;0.30;0.20;;;;;;;;;;5031012;28;20408;-63
2021/07/08 08:27:32;;;;;;;0.30;0.20;;;;;;;;;;5030972;28;20408;-63
2021/07/08 08:29:58;;;;;;;0.30;0.20;;;;;;;;;;5030456;28;20439;-62
2021/07/08 08:32:24;;;;;;;0.30;0.20;;;;;;;;;;5030810;28;20423;-63
2021/07/08 08:34:50;;;;;;;0.30;0.20;;;;;;;;;;5030391;28;20439;-63
2021/07/08 08:37:16;;;;;;;0.30;0.20;;;;;;;;;;5030776;28;20411;-63
2021/07/08 08:39:42;;;;;;;0.30;0.20;;;;;;;;;;5030693;28;20435;-63
2021/07/08 08:42:08;;;;;;;0.30;0.20;;;;;;;;;;5030570;28;20528;-63
2021/07/08 08:44:35;;;;;;;0.30;0.20;;;;;;;;;;5030894;28;20424;-63
2021/07/08 08:47:01;;;;;;;0.30;0.20;;;;;;;;;;5030799;28;20411;-63
2021/07/08 08:49:27;;;;;;;0.30;0.20;;;;;;;;;;5030652;28;20403;-63
2021/07/08 08:51:53;;;;;;;0.30;0.20;;;;;;;;;;5030352;28;20411;-63
2021/07/08 08:54:19;;;;;;;0.30;0.30;;;;;;;;;;5030513;28;20397;-63
2021/07/08 08:56:46;;;;;;;0.20;0.20;;;;;;;;;;5030549;28;20411;-63
2021/07/08 08:59:12;;;;;;;0.20;0.20;;;;;;;;;;5030737;28;20424;-63
2021/07/08 09:01:38;;;;;;;0.20;0.20;;;;;;;;;;5030407;28;20486;-63
2021/07/08 09:04:04;;;;;;;0.20;0.20;;;;;;;;;;5030644;28;20453;-63
2021/07/08 09:06:37;;;;;;;0.20;0.20;;;;;;;;;;5030564;28;20935;-63
2021/07/08 09:09:09;;;;;;;0.20;0.20;;;;;;;;;;5030611;28;20404;-63
2021/07/08 09:11:35;;;;;;;0.20;0.20;;;;;;;;;;5030441;28;20462;-63
2021/07/08 09:14:03;;;;;;;0.20;0.20;;;;;;;;;;5030618;28;20391;-63
2021/07/08 09:16:36;;;;;;;0.20;0.20;;;;;;;;;;5030531;28;20383;-63
2021/07/08 09:19:12;;;;;;;0.20;0.20;;;;;;;;;;5030212;28;20395;-62
2021/07/08 09:21:39;;;;;;;0.20;0.20;;;;;;;;;;5030300;28;20528;-62
2021/07/08 09:24:10;;;;;;;0.20;0.20;;;;;;;;;;5030550;28;20784;-63
2021/07/08 09:26:37;;;;;;;0.20;0.20;;;;;;;;;;5030069;28;20896;-62
2021/07/08 09:29:10;;;;;;;0.20;0.20;;;;;;;;;;5030236;28;20412;-62
2021/07/08 09:31:37;;;;;;;0.20;0.20;;;;;;;;;;5029934;28;20425;-62
2021/07/08 09:34:13;;;;;;;0.20;0.20;;;;;;;;;;5030541;28;20412;-62
2021/07/08 09:36:40;;;;;;;0.20;0.20;;;;;;;;;;5030430;28;20378;-62
2021/07/08 09:39:07;;;;;;;0.20;0.20;;;;;;;;;;5030315;28;20901;-62
2021/07/08 09:41:33;;;;;;;0.20;0.20;;;;;;;;;;5029843;28;20990;-62
2021/07/08 09:43:59;;;;;;;0.20;0.20;;;;;;;;;;5030245;28;20386;-62
2021/07/08 09:46:36;;;;;;;0.20;0.20;;;;;;;;;;5030789;28;20405;-62
2021/07/08 09:49:02;;;;;;;0.20;0.20;;;;;;;;;;5034062;28;20418;-62
2021/07/08 09:51:29;;;;;;;0.20;0.20;;;;;;;;;;5033421;28;20427;-62
2021/07/08 09:54:04;;;;;;;0.20;0.20;;;;;;;;;;5033791;28;20776;-62
2021/07/08 09:56:46;;;;;;;0.20;0.20;;;;;;;;;;5033526;28;20410;-62
2021/07/08 09:59:13;;;;;;;0.20;0.20;;;;;;;;;;5033401;28;20395;-62
2021/07/08 10:01:39;;;;;;;0.20;0.20;;;;;;;;;;5033452;28;20458;-62
2021/07/08 10:04:05;;;;;;;0.20;0.20;;;;;;;;;;5033537;28;20393;-62
2021/07/08 10:06:32;;;;;;;0.20;0.20;;;;;;;;;;5033460;28;20448;-62
2021/07/08 10:08:58;;;;;;;0.20;0.20;;;;;;;;;;5033491;28;20426;-62
2021/07/08 10:11:25;;;;;;;0.20;0.20;;;;;;;;;;5033095;28;20777;-62
2021/07/08 10:13:51;;;;;;;0.20;0.20;;;;;;;;;;5032568;28;20408;-62
2021/07/08 10:16:18;;;;;;;0.20;0.20;;;;;;;;;;5033142;28;20412;-62
2021/07/08 10:18:45;;;;;;;0.20;0.20;;;;;;;;;;5032375;28;20416;-62
2021/07/08 10:21:12;;;;;;;0.20;0.20;;;;;;;;;;5033943;28;20463;-62
2021/07/08 10:23:38;;;;;;;0.20;0.20;;;;;;;;;;5036258;28;20416;-62
2021/07/08 10:26:06;;;;;;;0.20;0.20;;;;;;;;;;5035330;28;20405;-62
2021/07/08 10:28:34;;;;;;;0.20;0.20;;;;;;;;;;5034007;28;20386;-62
2021/07/08 10:31:00;;;;;;;0.20;0.20;;;;;;;;;;5047514;22;20487;-64
2021/07/08 10:33:26;;;;;;;0.20;0.20;;;;;;;;;;5013486;28;20435;-65
2021/07/08 10:35:53;;;;;;;0.20;0.20;;;;;;;;;;5013501;28;20416;-64
2021/07/08 10:38:28;;;;;;;0.20;0.20;;;;;;;;;;5013498;28;20380;-63
2021/07/08 10:40:55;;;;;;;0.20;0.20;;;;;;;;;;5013214;28;20427;-63
2021/07/08 10:43:33;;;;;;;0.20;0.20;;;;;;;;;;5013615;28;20430;-64
2021/07/08 10:46:03;;;;;;;0.20;0.20;;;;;;;;;;5013424;28;20418;-65
2021/07/08 10:48:38;;;;;;;0.20;0.20;;;;;;;;;;5013280;28;20393;-65
2021/07/08 10:51:06;;;;;;;0.20;0.20;;;;;;;;;;5013164;28;20427;-65
2021/07/08 10:53:37;;;;;;;0.20;0.20;;;;;;;;;;5020304;28;20469;-63
2021/07/08 10:56:08;;;;;;;0.20;0.20;;;;;;;;;;5033067;28;20469;-64
2021/07/08 10:58:49;;;;;;;0.20;0.20;;;;;;;;;;5032462;28;20410;-65
2021/07/08 11:01:25;;;;;;;0.20;0.20;;;;;;;;;;5032523;28;20436;-65
2021/07/08 11:03:58;;;;;;;0.20;0.20;;;;;;;;;;5032647;28;20435;-63
2021/07/08 11:06:24;;;;;;;0.20;0.20;;;;;;;;;;5032774;28;20435;-66
2021/07/08 11:08:55;;;;;;;0.20;0.20;;;;;;;;;;5032592;28;20523;-64
2021/07/08 11:11:22;;;;;;;0.20;0.20;;;;;;;;;;5032348;28;20423;-65
2021/07/08 11:13:48;;;;;;;0.20;0.20;;;;;;;;;;5032492;28;20442;-64
2021/07/08 11:16:32;;;;;;;0.20;0.20;;;;;;;;;;5032504;28;20855;-65
2021/07/08 11:19:02;;;;;;;0.20;0.20;;;;;;;;;;5032442;28;20777;-65
2021/07/08 11:21:47;;;;;;;0.20;0.20;;;;;;;;;;5030735;28;20578;-65
2021/07/08 11:24:20;;;;;;;0.20;0.20;;;;;;;;;;5032319;28;20808;-65
2021/07/08 11:26:56;;;;;;;0.20;0.20;;;;;;;;;;5032338;28;20452;-65
2021/07/08 11:29:32;;;;;;;0.20;0.20;;;;;;;;;;5032186;28;20742;-65
2021/07/08 11:31:58;;;;;;;0.20;0.20;;;;;;;;;;5031892;28;20416;-64
2021/07/08 11:34:26;;;;;;;0.20;0.20;;;;;;;;;;5032176;28;20412;-64
2021/07/08 11:36:54;;;;;;;0.20;0.20;;;;;;;;;;5031627;28;20435;-61
2021/07/08 11:39:23;;;;;;;0.20;0.20;;;;;;;;;;5032107;28;20435;-64
2021/07/08 11:41:50;;;;;;;0.20;0.20;;;;;;;;;;5031735;28;20499;-63
2021/07/08 11:44:17;;;;;;;0.20;0.20;;;;;;;;;;5031786;28;20506;-64
2021/07/08 11:46:43;;;;;;;0.20;0.20;;;;;;;;;;5031818;28;20892;-63
2021/07/08 11:49:09;;;;;;;0.20;0.20;;;;;;;;;;5031770;28;20438;-63
2021/07/08 11:51:35;;;;;;;0.20;0.20;;;;;;;;;;5031561;28;20431;-64
2021/07/08 11:54:06;;;;;;;0.20;0.20;;;;;;;;;;5031664;28;20415;-63
2021/07/08 11:56:32;;;;;;;0.20;0.20;;;;;;;;;;5030625;28;20461;-63
2021/07/08 11:59:04;;;;;;;0.20;0.20;;;;;;;;;;5031533;28;20412;-63
2021/07/08 12:01:30;;;;;;;0.20;0.20;;;;;;;;;;5031350;28;20969;-64
2021/07/08 12:03:56;;;;;;;0.20;0.20;;;;;;;;;;5031558;28;20418;-65
2021/07/08 12:06:27;;;;;;;0.20;0.20;;;;;;;;;;5031856;28;20986;-63
2021/07/08 12:08:56;;;;;;;0.30;0.30;;;;;;;;;;5030884;28;20403;-63
2021/07/08 12:11:31;;;;;;;0.20;0.20;;;;;;;;;;5031178;28;20469;-64
2021/07/08 12:13:57;;;;;;;0.20;0.20;;;;;;;;;;5031299;28;20481;-64
2021/07/08 12:16:32;;;;;;;0.20;0.20;;;;;;;;;;5031499;28;20405;-64
2021/07/08 12:18:59;;;;;;;0.20;0.20;;;;;;;;;;5031517;28;20764;-64
2021/07/08 12:21:30;;;;;;;0.20;0.20;;;;;;;;;;5030944;28;20458;-64
2021/07/08 12:23:58;;;;;;;0.20;0.20;;;;;;;;;;5031358;28;20382;-64
2021/07/08 12:26:34;;;;;;;0.20;0.20;;;;;;;;;;5031617;28;20430;-63
2021/07/08 12:29:19;;;;;;;0.20;0.20;;;;;;;;;;5030377;28;20498;-63
2021/07/08 12:31:53;;;;;;;0.20;0.20;;;;;;;;;;5030954;28;20775;-64
2021/07/08 12:34:21;;;;;;;0.20;0.20;;;;;;;;;;5031253;28;20431;-65
2021/07/08 12:36:47;;;;;;;0.20;0.20;;;;;;;;;;5029871;28;20437;-64
2021/07/08 12:39:26;;;;;;;0.20;0.20;;;;;;;;;;5031088;28;20476;-65
2021/07/08 12:41:53;;;;;;;0.20;0.20;;;;;;;;;;5030468;28;20455;-64
2021/07/08 12:44:19;;;;;;;0.20;0.20;;;;;;;;;;5031142;28;20422;-64
2021/07/08 12:46:45;;;;;;;0.20;0.20;;;;;;;;;;5031091;28;20399;-65
2021/07/08 12:49:13;;;;;;;0.20;0.20;;;;;;;;;;5031123;28;20404;-64
2021/07/08 12:51:39;;;;;;;0.20;0.20;;;;;;;;;;5030693;28;20475;-62
2021/07/08 12:54:05;;;;;;;0.20;0.20;;;;;;;;;;5030834;28;20386;-63
2021/07/08 12:56:31;;;;;;;0.20;0.20;;;;;;;;;;5029950;28;20378;-63
2021/07/08 12:59:01;;;;;;;0.20;0.20;;;;;;;;;;5031175;28;20912;-62
2021/07/08 13:01:28;;;;;;;0.20;0.20;;;;;;;;;;5029531;28;20450;-65
2021/07/08 13:03:55;;;;;;;0.20;0.20;;;;;;;;;;5031355;28;20407;-65
2021/07/08 13:06:23;;;;;;;0.20;0.20;;;;;;;;;;5031078;28;20383;-62
2021/07/08 13:08:49;;;;;;;0.20;0.20;;;;;;;;;;5031588;28;20400;-65
2021/07/08 13:11:16;;;;;;;0.20;0.20;;;;;;;;;;5031204;28;21085;-65
2021/07/08 13:13:43;;;;;;;0.20;0.20;;;;;;;;;;5031209;28;20403;-66
2021/07/08 13:16:19;;;;;;;0.20;0.20;;;;;;;;;;5030410;28;20411;-65
2021/07/08 13:18:46;;;;;;;0.20;0.20;;;;;;;;;;5029610;28;20408;-64
2021/07/08 13:21:13;;;;;;;0.20;0.20;;;;;;;;;;5032324;28;20466;-64
2021/07/08 13:23:39;;;;;;;0.20;0.20;;;;;;;;;;5034602;28;20408;-65
2021/07/08 13:26:09;;;;;;;0.20;0.20;;;;;;;;;;5034629;28;20378;-66
2021/07/08 13:28:35;;;;;;;0.20;0.20;;;;;;;;;;5034647;28;20788;-65
2021/07/08 13:31:03;;;;;;;0.20;0.20;;;;;;;;;;5034083;28;20431;-65
2021/07/08 13:33:35;;;;;;;0.20;0.20;;;;;;;;;;5034424;28;20434;-65
2021/07/08 13:36:13;;;;;;;0.20;0.20;;;;;;;;;;5034304;28;20399;-65
2021/07/08 13:38:39;;;;;;;0.20;0.20;;;;;;;;;;5034413;28;20910;-65
2021/07/08 13:41:26;;;;;;;0.20;0.20;;;;;;;;;;5034063;28;20405;-64
2021/07/08 13:43:52;;;;;;;0.20;0.20;;;;;;;;;;5034495;28;20427;-62
2021/07/08 13:46:24;;;;;;;0.20;0.20;;;;;;;;;;5034080;28;20430;-64
2021/07/08 13:48:54;;;;;;;0.20;0.20;;;;;;;;;;5034515;28;20381;-63
2021/07/08 13:51:21;;;;;;;0.20;0.20;;;;;;;;;;5033943;28;20470;-64
2021/07/08 13:53:48;;;;;;;0.30;0.30;;;;;;;;;;5034422;28;20398;-64
2021/07/08 13:56:18;;;;;;;0.20;0.20;;;;;;;;;;5034158;28;20927;-62
2021/07/08 13:58:45;;;;;;;0.30;0.30;;;;;;;;;;5034272;28;20454;-62
2021/07/08 14:01:11;;;;;;;0.20;0.20;;;;;;;;;;5032304;28;20431;-65
2021/07/08 14:03:37;;;;;;;0.20;0.20;;;;;;;;;;5033891;28;20459;-65
2021/07/08 14:06:03;;;;;;;0.20;0.20;;;;;;;;;;5033924;28;20386;-64
2021/07/08 14:08:35;;;;;;;0.20;0.20;;;;;;;;;;5034021;28;20427;-64
2021/07/08 14:11:01;;;;;;;0.20;0.20;;;;;;;;;;5033904;28;20423;-64
2021/07/08 14:13:27;;;;;;;0.30;0.30;;;;;;;;;;5034224;28;20438;-63
2021/07/08 14:15:53;;;;;;;0.20;0.20;;;;;;;;;;5033579;28;20484;-65
2021/07/08 14:18:19;;;;;;;0.20;0.20;;;;;;;;;;5032915;28;20931;-66
2021/07/08 14:20:45;;;;;;;0.20;0.20;;;;;;;;;;5033347;28;20443;-65
2021/07/08 14:23:11;;;;;;;0.20;0.20;;;;;;;;;;5033513;28;20454;-63
2021/07/08 14:25:37;;;;;;;0.20;0.20;;;;;;;;;;5033398;28;20382;-64
2021/07/08 14:28:07;;;;;;;0.20;0.20;;;;;;;;;;5033423;28;20439;-65
2021/07/08 14:30:34;;;;;;;0.20;0.20;;;;;;;;;;5032909;28;20524;-63
2021/07/08 14:33:02;;;;;;;0.20;0.20;;;;;;;;;;5032681;28;20432;-64
2021/07/08 14:35:28;;;;;;;0.20;0.20;;;;;;;;;;5033335;28;20408;-65
2021/07/08 14:37:54;;;;;;;0.20;0.20;;;;;;;;;;5033219;28;20412;-65
2021/07/08 14:40:20;;;;;;;0.20;0.20;;;;;;;;;;5032977;28;20438;-63
2021/07/08 14:43:05;;;;;;;0.20;0.20;;;;;;;;;;5033029;28;20458;-64
2021/07/08 14:45:32;;;;;;;0.20;0.20;;;;;;;;;;5033374;28;20378;-62
2021/07/08 14:47:59;;;;;;;0.20;0.20;;;;;;;;;;5033139;28;20403;-64
2021/07/08 14:50:25;;;;;;;0.20;0.20;;;;;;;;;;5032313;28;20427;-63